createdAt,value
2022-09-23T00:00:31.320Z,1.80
2022-09-23T00:03:17.286Z,1.90
2022-09-23T00:06:10.687Z,1.98
2022-09-23T00:08:56.496Z,1.75
2022-09-23T00:11:42.198Z,1.70
2022-09-23T00:14:27.753Z,1.48
2022-09-23T00:17:14.018Z,2.00
2022-09-23T00:20:00.375Z,1.67
2022-09-23T00:22:46.532Z,1.75
2022-09-23T00:25:31.951Z,1.55
2022-09-23T00:28:17.642Z,1.50
2022-09-23T00:31:11.533Z,1.63
2022-09-23T00:33:59.952Z,1.52
2022-09-23T00:36:45.523Z,1.70
2022-09-23T00:39:31.320Z,1.73
2022-09-23T00:42:20.852Z,1.50
2022-09-23T00:45:11.516Z,1.52
2022-09-23T00:48:01.942Z,1.60
2022-09-23T00:50:54.411Z,1.60
2022-09-23T00:53:40.581Z,1.58
2022-09-23T00:56:26.399Z,1.63
2022-09-23T00:59:13.902Z,1.55
2022-09-23T01:02:02.263Z,1.73
2022-09-23T01:04:50.706Z,1.65
2022-09-23T01:07:36.560Z,1.67
2022-09-23T01:10:23.338Z,1.73
2022-09-23T01:13:30.512Z,1.80
2022-09-23T01:16:29.733Z,1.70
2022-09-23T01:19:27.439Z,1.80
2022-09-23T01:22:19.184Z,1.40
2022-09-23T01:25:26.100Z,1.60
2022-09-23T01:28:40.811Z,1.80
2022-09-23T01:31:42.255Z,1.50
2022-09-23T01:34:44.850Z,1.63
2022-09-23T01:37:52.215Z,1.60
2022-09-23T01:40:56.456Z,2.00
2022-09-23T01:43:44.998Z,1.85
2022-09-23T01:47:00.787Z,1.70
2022-09-23T01:49:59.196Z,1.80
2022-09-23T01:52:49.020Z,2.08
2022-09-23T01:55:41.475Z,1.80
2022-09-23T01:58:42.083Z,1.50
2022-09-23T02:01:52.260Z,2.10
2022-09-23T02:04:45.665Z,1.60
2022-09-23T02:10:44.203Z,1.67
2022-09-23T02:13:40.114Z,1.38
2022-09-23T02:16:35.755Z,1.60
2022-09-23T02:19:27.559Z,2.35
2022-09-23T02:22:28.482Z,2.00
2022-09-23T02:25:16.269Z,1.58
2022-09-23T02:28:13.681Z,1.75
2022-09-23T02:31:32.434Z,2.53
2022-09-23T02:34:28.575Z,1.80
2022-09-23T02:37:34.882Z,1.83
2022-09-23T02:40:28.358Z,1.80
2022-09-23T02:46:07.461Z,1.30
2022-09-23T02:48:56.908Z,1.85
2022-09-23T02:51:42.785Z,1.63
2022-09-23T02:54:29.340Z,1.90
2022-09-23T02:57:14.831Z,1.73
2022-09-23T03:00:02.148Z,1.80
2022-09-23T03:03:10.557Z,1.80
2022-09-23T03:06:03.396Z,1.67
2022-09-23T03:09:06.980Z,1.67
2022-09-23T03:12:16.898Z,1.73
2022-09-23T03:15:27.603Z,1.80
2022-09-23T03:18:23.573Z,1.50
2022-09-23T03:21:22.776Z,1.70
2022-09-23T03:24:10.984Z,1.65
2022-09-23T03:26:58.658Z,1.90
2022-09-23T03:29:48.839Z,1.77
2022-09-23T03:32:36.427Z,1.80
2022-09-23T03:35:25.738Z,1.65
2022-09-23T03:38:17.863Z,1.52
2022-09-23T03:41:05.832Z,1.77
2022-09-23T03:43:53.308Z,1.52
2022-09-23T03:46:38.982Z,1.90
2022-09-23T03:49:32.887Z,1.60
2022-09-23T03:52:21.271Z,2.03
2022-09-23T03:55:07.832Z,1.60
2022-09-23T03:57:53.405Z,1.60
2022-09-23T04:00:39.745Z,1.67
2022-09-23T04:03:28.104Z,1.70
2022-09-23T04:06:13.910Z,1.60
2022-09-23T04:08:59.711Z,1.63
2022-09-23T04:11:45.520Z,1.70
2022-09-23T04:14:31.259Z,1.67
2022-09-23T04:17:17.074Z,1.65
2022-09-23T04:20:03.031Z,1.60
2022-09-23T04:22:48.811Z,1.88
2022-09-23T04:25:34.603Z,2.47
2022-09-23T04:28:20.761Z,1.92
2022-09-23T04:31:08.406Z,2.05
2022-09-23T04:33:54.625Z,1.98
2022-09-23T04:36:40.140Z,1.70
2022-09-23T04:39:25.927Z,1.67
2022-09-23T04:42:11.296Z,1.65
2022-09-23T04:44:57.871Z,2.03
2022-09-23T04:47:43.467Z,1.70
2022-09-23T04:50:29.162Z,1.73
2022-09-23T04:53:15.096Z,1.60
2022-09-23T04:56:22.270Z,2.00
2022-09-23T04:59:09.061Z,2.20
2022-09-23T05:01:55.339Z,2.15
2022-09-23T05:04:41.742Z,2.13
2022-09-23T05:07:27.324Z,1.95
2022-09-23T05:10:12.935Z,1.90
2022-09-23T05:12:59.212Z,1.92
2022-09-23T05:15:44.806Z,1.88
2022-09-23T05:18:34.785Z,1.80
2022-09-23T05:21:23.013Z,1.70
2022-09-23T05:24:09.902Z,2.33
2022-09-23T05:26:56.207Z,2.00
2022-09-23T05:29:43.300Z,1.92
2022-09-23T05:32:29.273Z,2.25
2022-09-23T05:35:15.836Z,2.10
2022-09-23T05:38:01.560Z,2.05
2022-09-23T05:40:47.195Z,2.63
2022-09-23T05:43:33.683Z,2.20
2022-09-23T05:46:30.394Z,2.42
2022-09-23T05:49:16.075Z,1.92
2022-09-23T05:52:02.111Z,2.10
2022-09-23T05:54:47.525Z,2.05
2022-09-23T05:57:33.220Z,2.03
2022-09-23T06:00:18.983Z,2.00
2022-09-23T06:03:04.485Z,1.88
2022-09-23T06:05:54.198Z,2.35
2022-09-23T06:08:40.126Z,1.45
2022-09-23T06:11:26.424Z,1.83
2022-09-23T06:14:14.828Z,1.55
2022-09-23T06:17:00.633Z,1.73
2022-09-23T06:19:46.467Z,1.48
2022-09-23T06:22:34.069Z,1.60
2022-09-23T06:25:23.045Z,1.60
2022-09-23T06:28:12.171Z,1.63
2022-09-23T06:30:59.484Z,1.67
2022-09-23T06:33:46.390Z,2.10
2022-09-23T06:36:42.557Z,1.98
2022-09-23T06:39:30.472Z,1.80
2022-09-23T06:42:16.731Z,2.40
2022-09-23T06:45:02.276Z,3.20
2022-09-23T06:47:51.111Z,4.00
2022-09-23T06:50:37.179Z,4.55
2022-09-23T06:53:25.307Z,3.97
2022-09-23T06:56:13.714Z,4.20
2022-09-23T06:59:32.414Z,4.15
2022-09-23T07:02:18.209Z,4.07
2022-09-23T07:05:04.499Z,4.10
2022-09-23T07:07:50.119Z,4.28
2022-09-23T07:10:36.789Z,4.35
2022-09-23T07:13:22.691Z,3.83
2022-09-23T07:16:14.764Z,3.80
2022-09-23T07:19:00.483Z,3.92
2022-09-23T07:21:48.493Z,4.50
2022-09-23T07:24:34.381Z,4.63
2022-09-23T07:27:20.067Z,3.95
2022-09-23T07:30:07.326Z,4.30
2022-09-23T07:32:54.864Z,4.10
2022-09-23T07:35:42.258Z,4.18
2022-09-23T07:38:30.454Z,3.80
2022-09-23T07:41:18.918Z,3.72
2022-09-23T07:44:06.360Z,3.60
2022-09-23T07:46:51.874Z,3.60
2022-09-23T07:49:37.352Z,3.83
2022-09-23T07:52:23.048Z,3.58
2022-09-23T07:55:11.532Z,3.70
2022-09-23T07:57:57.231Z,3.08
2022-09-23T08:00:43.347Z,3.45
2022-09-23T08:03:29.337Z,2.83
2022-09-23T08:06:15.187Z,3.35
2022-09-23T08:09:01.675Z,2.78
2022-09-23T08:11:47.412Z,2.72
2022-09-23T08:14:33.061Z,2.38
2022-09-23T08:17:18.987Z,2.50
2022-09-23T08:20:04.740Z,2.70
2022-09-23T08:22:51.323Z,2.90
2022-09-23T08:25:37.244Z,3.10
2022-09-23T08:28:31.606Z,2.90
2022-09-23T08:31:50.530Z,3.22
2022-09-23T08:34:35.877Z,2.58
2022-09-23T08:37:21.323Z,3.15
2022-09-23T08:40:10.063Z,3.38
2022-09-23T08:42:55.994Z,3.22
2022-09-23T08:45:44.142Z,3.10
2022-09-23T08:48:33.767Z,2.95
2022-09-23T08:51:39.900Z,3.72
2022-09-23T08:54:30.869Z,3.05
2022-09-23T08:57:42.403Z,3.00
2022-09-23T09:00:39.614Z,3.30
2022-09-23T09:03:35.449Z,3.03
2022-09-23T09:06:52.281Z,3.28
2022-09-23T09:10:03.084Z,3.97
2022-09-23T09:12:57.277Z,3.33
2022-09-23T09:15:55.205Z,3.00
2022-09-23T09:18:52.127Z,3.38
2022-09-23T09:21:42.542Z,3.08
2022-09-23T09:24:34.227Z,3.03
2022-09-23T09:27:19.881Z,2.70
2022-09-23T09:30:06.788Z,3.28
2022-09-23T09:33:00.530Z,3.17
2022-09-23T09:38:58.552Z,3.60
2022-09-23T09:41:50.543Z,4.40
2022-09-23T09:44:46.793Z,3.70
2022-09-23T09:48:06.496Z,3.90
2022-09-23T09:50:55.637Z,3.95
2022-09-23T09:53:41.119Z,4.22
2022-09-23T09:56:35.132Z,3.88
2022-09-23T09:59:27.322Z,3.75
2022-09-23T10:02:31.343Z,3.73
2022-09-23T10:05:32.646Z,3.63
2022-09-23T10:08:26.943Z,3.85
2022-09-23T10:11:19.342Z,3.65
2022-09-23T10:14:19.017Z,3.15
2022-09-23T10:17:06.561Z,3.25
2022-09-23T10:20:06.331Z,3.08
2022-09-23T10:22:52.676Z,2.67
2022-09-23T10:25:38.195Z,3.05
2022-09-23T10:28:53.212Z,2.65
2022-09-23T10:31:38.704Z,3.05
2022-09-23T10:34:27.411Z,2.90
2022-09-23T10:37:25.779Z,2.40
2022-09-23T10:40:48.561Z,2.25
2022-09-23T10:44:16.887Z,2.88
2022-09-23T10:47:24.209Z,2.63
2022-09-23T10:50:33.072Z,1.98
2022-09-23T10:53:24.340Z,4.05
2022-09-23T10:56:39.487Z,3.67
2022-09-23T10:59:41.143Z,3.30
2022-09-23T11:02:34.267Z,3.10
2022-09-23T11:05:51.049Z,2.67
2022-09-23T11:09:06.326Z,2.67
2022-09-23T11:12:46.327Z,2.80
2022-09-23T11:16:06.256Z,2.55
2022-09-23T11:19:04.094Z,2.42
2022-09-23T11:22:24.891Z,2.80
2022-09-23T11:25:24.041Z,1.98
2022-09-23T11:28:31.447Z,2.33
2022-09-23T11:31:29.499Z,2.17
2022-09-23T11:34:45.302Z,1.83
2022-09-23T11:37:38.475Z,1.75
2022-09-23T11:40:43.941Z,1.48
2022-09-23T11:43:38.847Z,1.95
2022-09-23T11:46:30.505Z,2.15
2022-09-23T11:49:22.054Z,2.08
2022-09-23T11:52:20.544Z,1.80
2022-09-23T11:55:31.824Z,2.00
2022-09-23T11:58:27.979Z,1.50
2022-09-23T12:01:36.727Z,1.65
2022-09-23T12:04:23.931Z,1.48
2022-09-23T12:07:27.700Z,1.27
2022-09-23T12:13:16.200Z,1.88
2022-09-23T12:16:07.565Z,2.30
2022-09-23T12:19:02.717Z,2.72
2022-09-23T12:22:26.667Z,2.17
2022-09-23T12:25:39.747Z,2.45
2022-09-23T12:28:41.541Z,1.55
2022-09-23T12:31:33.051Z,3.60
2022-09-23T12:34:33.598Z,3.20
2022-09-23T12:37:35.948Z,3.72
2022-09-23T12:40:32.187Z,4.18
2022-09-23T12:43:33.171Z,4.15
2022-09-23T12:46:25.966Z,3.97
2022-09-23T12:49:30.015Z,4.37
2022-09-23T12:52:18.764Z,4.22
2022-09-23T12:55:23.340Z,3.70
2022-09-23T12:58:44.154Z,3.97
2022-09-23T13:01:37.577Z,3.70
2022-09-23T13:05:13.148Z,3.72
2022-09-23T13:08:06.493Z,3.35
2022-09-23T13:11:01.123Z,3.25
2022-09-23T13:13:49.939Z,3.20
2022-09-23T13:16:41.559Z,3.45
2022-09-23T13:19:27.182Z,2.28
2022-09-23T13:22:13.531Z,2.83
2022-09-23T13:25:02.958Z,3.00
2022-09-23T13:27:52.870Z,2.80
2022-09-23T13:30:50.268Z,3.83
2022-09-23T13:33:44.324Z,2.10
2022-09-23T13:36:30.076Z,3.13
2022-09-23T13:39:27.571Z,3.03
2022-09-23T13:42:28.904Z,3.45
2022-09-23T13:45:21.417Z,3.85
2022-09-23T13:48:12.068Z,3.47
2022-09-23T13:50:58.126Z,3.35
2022-09-23T13:53:51.298Z,3.40
2022-09-23T13:56:37.854Z,3.83
2022-09-23T13:59:27.948Z,3.25
2022-09-23T14:02:18.948Z,3.45
2022-09-23T14:05:12.509Z,3.78
2022-09-23T14:07:57.919Z,3.53
2022-09-23T14:10:46.088Z,3.60
2022-09-23T14:13:36.422Z,3.35
2022-09-23T14:16:28.274Z,4.15
2022-09-23T14:19:18.843Z,3.72
2022-09-23T14:22:06.335Z,3.83
2022-09-23T14:24:55.953Z,4.43
2022-09-23T14:27:43.854Z,3.92
2022-09-23T14:30:32.854Z,5.53
2022-09-23T14:33:23.680Z,6.03
2022-09-23T14:36:33.743Z,5.53
2022-09-23T14:39:19.304Z,5.93
2022-09-23T14:42:07.506Z,5.90
2022-09-23T14:44:53.485Z,5.65
2022-09-23T14:47:45.009Z,6.55
2022-09-23T14:50:47.302Z,5.72
2022-09-23T14:53:37.496Z,6.20
2022-09-23T14:56:25.263Z,5.38
2022-09-23T14:59:29.011Z,5.35
2022-09-23T15:02:35.937Z,5.93
2022-09-23T15:05:23.712Z,7.60
2022-09-23T15:08:13.051Z,6.80
2022-09-23T15:11:06.992Z,6.90
2022-09-23T15:13:53.621Z,7.03
2022-09-23T15:16:40.114Z,7.63
2022-09-23T15:19:25.627Z,7.07
2022-09-23T15:22:12.877Z,7.15
2022-09-23T15:25:17.318Z,7.20
2022-09-23T15:28:10.712Z,7.03
2022-09-23T15:30:56.484Z,5.82
2022-09-23T15:33:47.547Z,5.80
2022-09-23T15:36:33.254Z,6.32
2022-09-23T15:39:18.743Z,6.65
2022-09-23T15:42:05.941Z,7.20
2022-09-23T15:44:51.495Z,6.97
2022-09-23T15:47:37.615Z,6.57
2022-09-23T15:50:23.143Z,6.75
2022-09-23T15:53:19.239Z,6.07
2022-09-23T15:56:05.200Z,6.43
2022-09-23T15:58:51.307Z,6.25
2022-09-23T16:01:37.545Z,6.68
2022-09-23T16:04:23.760Z,7.60
2022-09-23T16:07:16.526Z,6.68
2022-09-23T16:10:02.286Z,7.40
2022-09-23T16:12:48.315Z,5.40
2022-09-23T16:15:34.334Z,7.05
2022-09-23T16:18:20.195Z,6.43
2022-09-23T16:21:07.720Z,5.82
2022-09-23T16:23:54.682Z,6.72
2022-09-23T16:26:41.174Z,6.65
2022-09-23T16:29:27.590Z,5.50
2022-09-23T16:32:13.475Z,6.50
2022-09-23T16:34:59.183Z,5.85
2022-09-23T16:37:47.054Z,6.40
2022-09-23T16:40:33.171Z,5.55
2022-09-23T16:43:19.598Z,5.88
2022-09-23T16:46:12.241Z,7.25
2022-09-23T16:48:59.138Z,5.43
2022-09-23T16:51:44.891Z,5.95
2022-09-23T16:54:31.988Z,5.15
2022-09-23T16:57:17.440Z,4.13
2022-09-23T17:00:31.823Z,4.00
2022-09-23T17:03:35.765Z,3.83
2022-09-23T17:06:24.033Z,2.60
2022-09-23T17:09:09.767Z,3.00
2022-09-23T17:12:21.484Z,3.38
2022-09-23T17:15:07.598Z,3.03
2022-09-23T17:17:53.120Z,3.00
2022-09-23T17:20:39.040Z,3.00
2022-09-23T17:23:26.454Z,2.92
2022-09-23T17:26:12.693Z,3.30
2022-09-23T17:28:59.578Z,2.42
2022-09-23T17:31:46.625Z,3.00
2022-09-23T17:34:33.570Z,2.83
2022-09-23T17:37:19.606Z,2.90
2022-09-23T17:40:06.045Z,2.97
2022-09-23T17:42:53.321Z,3.40
2022-09-23T17:45:39.222Z,3.13
2022-09-23T17:48:25.458Z,3.28
2022-09-23T17:51:14.495Z,3.63
2022-09-23T17:53:59.926Z,3.42
2022-09-23T17:56:45.533Z,3.17
2022-09-23T17:59:31.187Z,3.80
2022-09-23T18:02:17.024Z,4.15
2022-09-23T18:05:03.061Z,4.55
2022-09-23T18:07:48.484Z,4.53
2022-09-23T18:10:34.135Z,5.05
2022-09-23T18:13:19.682Z,4.70
2022-09-23T18:16:05.546Z,5.50
2022-09-23T18:18:55.989Z,5.07
2022-09-23T18:21:44.711Z,4.28
2022-09-23T18:24:33.456Z,4.35
2022-09-23T18:27:19.640Z,4.50
2022-09-23T18:30:05.903Z,4.47
2022-09-23T18:32:52.481Z,3.97
2022-09-23T18:35:38.382Z,3.90
2022-09-23T18:38:24.198Z,4.13
2022-09-23T18:41:12.031Z,4.07
2022-09-23T18:43:57.522Z,4.07
2022-09-23T18:46:44.820Z,3.92
2022-09-23T18:49:48.943Z,4.30
2022-09-23T18:52:34.370Z,4.38
2022-09-23T18:55:20.045Z,3.67
2022-09-23T18:58:07.364Z,4.30
2022-09-23T19:00:53.270Z,4.18
2022-09-23T19:03:39.552Z,4.63
2022-09-23T19:06:25.538Z,3.90
2022-09-23T19:09:12.344Z,3.90
2022-09-23T19:11:57.837Z,3.80
2022-09-23T19:14:44.730Z,3.63
2022-09-23T19:17:30.621Z,3.40
2022-09-23T19:20:17.707Z,3.35
2022-09-23T19:23:03.164Z,3.90
2022-09-23T19:25:49.157Z,3.63
2022-09-23T19:28:35.246Z,3.58
2022-09-23T19:31:29.705Z,3.88
2022-09-23T19:34:23.773Z,3.83
2022-09-23T19:37:10.330Z,4.00
2022-09-23T19:39:55.975Z,3.80
2022-09-23T19:42:43.031Z,4.00
2022-09-23T19:45:30.152Z,3.15
2022-09-23T19:48:15.740Z,3.65
2022-09-23T19:51:02.657Z,3.97
2022-09-23T19:53:48.044Z,3.80
2022-09-23T19:56:34.552Z,4.20
2022-09-23T19:59:20.525Z,4.55
2022-09-23T20:02:06.539Z,4.38
2022-09-23T20:04:52.119Z,4.47
2022-09-23T20:07:40.614Z,4.18
2022-09-23T20:10:26.594Z,4.40
2022-09-23T20:13:13.995Z,4.28
2022-09-23T20:15:59.757Z,3.65
2022-09-23T20:18:46.766Z,4.18
2022-09-23T20:21:33.994Z,3.97
2022-09-23T20:24:19.800Z,3.85
2022-09-23T20:27:11.397Z,4.05
2022-09-23T20:30:01.072Z,4.55
2022-09-23T20:32:48.657Z,4.05
2022-09-23T20:35:36.448Z,4.00
2022-09-23T20:38:22.342Z,4.32
2022-09-23T20:41:09.312Z,3.70
2022-09-23T20:43:57.339Z,3.65
2022-09-23T20:46:48.196Z,3.63
2022-09-23T20:49:34.518Z,3.60
2022-09-23T20:52:21.543Z,3.63
2022-09-23T20:55:08.118Z,3.50
2022-09-23T20:57:53.876Z,3.80
2022-09-23T21:00:40.554Z,3.20
2022-09-23T21:03:27.997Z,3.00
2022-09-23T21:06:15.247Z,3.20
2022-09-23T21:09:00.945Z,2.63
2022-09-23T21:11:46.767Z,2.53
2022-09-23T21:14:32.823Z,2.60
2022-09-23T21:17:18.671Z,3.03
2022-09-23T21:20:04.614Z,3.00
2022-09-23T21:22:50.440Z,2.92
2022-09-23T21:25:36.649Z,3.13
2022-09-23T21:28:22.811Z,2.88
2022-09-23T21:31:17.642Z,2.83
2022-09-23T21:34:11.356Z,3.20
2022-09-23T21:36:57.478Z,2.78
2022-09-23T21:40:03.091Z,3.15
2022-09-23T21:42:48.764Z,2.72
2022-09-23T21:45:34.215Z,3.00
2022-09-23T21:48:19.980Z,3.30
2022-09-23T21:51:11.888Z,3.25
2022-09-23T21:53:58.509Z,3.15
2022-09-23T21:56:44.703Z,3.47
2022-09-23T21:59:31.892Z,3.50
2022-09-23T22:02:17.581Z,3.30
2022-09-23T22:05:03.602Z,3.70
2022-09-23T22:07:49.012Z,2.97
2022-09-23T22:10:37.423Z,3.60
2022-09-23T22:13:23.387Z,3.50
2022-09-23T22:16:08.858Z,3.40
2022-09-23T22:18:55.317Z,3.40
2022-09-23T22:21:43.877Z,3.78
2022-09-23T22:24:29.720Z,3.38
2022-09-23T22:27:17.946Z,2.80
2022-09-23T22:30:29.600Z,3.53
2022-09-23T22:33:16.083Z,3.25
2022-09-23T22:36:04.991Z,3.33
2022-09-23T22:38:59.005Z,4.18
2022-09-23T22:41:45.909Z,3.45
2022-09-23T22:44:31.860Z,2.97
2022-09-23T22:47:18.208Z,2.80
2022-09-23T22:50:09.138Z,3.25
2022-09-23T22:52:55.023Z,3.05
2022-09-23T22:55:42.076Z,3.03
2022-09-23T22:58:32.479Z,2.67
2022-09-23T23:01:19.232Z,2.72
2022-09-23T23:04:07.970Z,2.78
2022-09-23T23:06:53.611Z,2.80
2022-09-23T23:09:39.308Z,2.28
2022-09-23T23:12:25.306Z,2.42
2022-09-23T23:15:12.913Z,2.40
2022-09-23T23:17:59.199Z,2.30
2022-09-23T23:20:46.030Z,2.35
2022-09-23T23:23:31.722Z,2.15
2022-09-23T23:26:20.068Z,2.60
2022-09-23T23:29:05.428Z,2.50
2022-09-23T23:31:51.330Z,1.80
2022-09-23T23:34:37.118Z,2.00
2022-09-23T23:37:22.751Z,2.08
2022-09-23T23:40:08.701Z,2.30
2022-09-23T23:42:54.930Z,1.92
2022-09-23T23:45:40.413Z,2.00
2022-09-23T23:48:28.636Z,1.67
2022-09-23T23:51:15.680Z,1.80
2022-09-23T23:54:01.728Z,1.98
2022-09-23T23:56:47.568Z,2.03
2022-09-23T23:59:34.387Z,1.95
